Time;durP1;ratioP1;P1;durP2;ratioP2;P2;SDS_P1;SDS_P2;PMS_P1;PMS_P2;Temp;Humidity;BMP_temperature;BMP_pressure;BME280_temperature;BME280_humidity;BME280_pressure;Samples;Min_cycle;Max_cycle;Signal;HPM_P1;HPM_P2
2022/05/07 00:01:42;;;;;;;3.72;2.58;;;15.60;40.70;;;13.24;44.64;101881.09;12245789;19;20014;-78
2022/05/07 00:05:43;;;;;;;2.20;2.10;;;15.50;40.70;;;13.23;44.55;101884.63;12245934;19;20018;-78
2022/05/07 00:09:45;;;;;;;2.45;2.30;;;15.40;40.80;;;13.09;44.73;101873.94;12248647;19;20015;-78
2022/05/07 00:13:48;;;;;;;2.72;2.53;;;15.30;40.90;;;13.05;44.76;101886.34;12245385;19;20078;-78
2022/05/07 00:18:02;;;;;;;3.33;2.63;;;15.30;41.00;;;13.01;44.71;101884.78;12243967;19;20022;-78
2022/05/07 00:22:04;;;;;;;2.38;2.22;;;15.20;41.00;;;12.98;44.79;101893.63;12245151;19;20053;-79
2022/05/07 00:26:05;;;;;;;2.55;2.35;;;15.10;41.10;;;12.57;44.91;101836.13;12247944;19;20060;-78
2022/05/07 00:30:07;;;;;;;2.17;1.90;;;15.10;41.10;;;12.82;44.95;101884.78;12248153;19;20499;-78
2022/05/07 00:34:08;;;;;;;3.30;1.83;;;15.00;41.20;;;12.36;45.08;101811.75;12246068;19;20014;-78
2022/05/07 00:38:10;;;;;;;2.28;2.08;;;15.00;41.20;;;12.77;45.06;101892.88;12244268;19;20024;-78
2022/05/07 00:42:12;;;;;;;2.58;2.38;;;14.80;41.20;;;12.59;45.13;101867.50;12246478;19;20024;-78
2022/05/07 00:46:14;;;;;;;2.40;2.30;;;14.90;41.30;;;12.70;45.15;101896.69;12245816;19;20018;-78
2022/05/07 00:54:37;;;;;;;2.58;2.38;;;14.80;41.50;;;12.52;45.38;101876.56;12240539;19;20014;-78
2022/05/07 00:58:41;;;;;;;2.90;2.63;;;14.80;41.60;;;12.44;45.37;101865.56;12240210;19;20026;-78
2022/05/07 01:02:42;;;;;;;2.90;2.33;;;14.70;41.50;;;12.45;45.35;101878.59;12228271;19;20014;-78
2022/05/07 01:06:45;;;;;;;2.47;2.28;;;14.50;41.50;;;12.29;45.51;101857.47;12243226;19;20022;-78
2022/05/07 01:10:48;;;;;;;2.53;2.33;;;14.50;41.60;;;12.18;45.56;101841.41;12238449;19;20593;-78
2022/05/07 01:14:54;;;;;;;2.38;2.20;;;14.50;41.60;;;12.08;45.51;101840.09;12238387;19;20017;-78
2022/05/07 01:18:56;;;;;;;3.40;3.10;;;14.40;41.60;;;12.05;45.69;101851.53;12243635;19;20366;-78
2022/05/07 01:23:00;;;;;;;3.33;2.65;;;14.20;41.60;;;12.04;45.80;101856.84;12242833;19;20471;-78
2022/05/07 01:27:03;;;;;;;2.43;2.23;;;14.20;41.80;;;12.01;45.85;101859.59;12241093;19;20022;-78
2022/05/07 01:31:05;;;;;;;5.57;2.65;;;14.20;41.80;;;12.05;45.93;101856.78;12242871;19;20010;-78
2022/05/07 01:35:07;;;;;;;3.58;2.78;;;14.20;42.10;;;11.96;46.08;101841.44;12240868;19;20015;-78
2022/05/07 01:39:09;;;;;;;4.90;2.65;;;14.20;42.10;;;12.05;45.88;101856.78;12242489;19;20426;-78
2022/05/07 01:43:11;;;;;;;3.10;2.58;;;14.20;42.20;;;11.89;46.15;101829.56;12242906;19;20019;-78
2022/05/07 01:51:34;;;;;;;3.15;2.85;;;14.10;42.40;;;11.99;46.20;101850.94;12235079;19;20089;-78
2022/05/07 01:55:36;;;;;;;3.08;2.85;;;14.10;42.40;;;11.83;46.30;101840.28;12242391;19;20010;-78
2022/05/07 01:59:38;;;;;;;2.45;2.25;;;14.00;42.30;;;11.20;46.32;101739.09;12240665;19;20010;-78
2022/05/07 02:03:44;;;;;;;3.97;3.53;;;13.90;42.30;;;11.81;46.29;101848.16;12240523;19;20017;-78
2022/05/07 02:07:48;;;;;;;3.00;2.70;;;14.00;42.50;;;11.87;46.59;101858.41;12240248;19;20023;-78
2022/05/07 02:11:51;;;;;;;2.97;2.78;;;14.00;42.70;;;11.74;46.56;101839.72;12241786;19;20038;-79
2022/05/07 02:15:53;;;;;;;2.97;2.58;;;14.00;42.80;;;11.84;46.66;101853.28;12236762;19;20081;-78
2022/05/07 02:19:54;;;;;;;3.58;2.70;;;13.90;42.90;;;11.82;46.87;101855.09;12240426;19;20018;-79
2022/05/07 02:23:56;;;;;;;5.72;2.63;;;13.90;43.00;;;11.61;46.82;101819.38;12238885;19;20014;-78
2022/05/07 02:27:58;;;;;;;2.55;2.30;;;13.80;43.20;;;11.80;46.91;101862.19;12240931;19;20038;-79
2022/05/07 02:32:05;;;;;;;2.47;2.28;;;13.90;43.30;;;11.63;46.99;101820.16;12239742;19;20014;-78
2022/05/07 02:36:10;;;;;;;3.17;2.50;;;13.90;43.40;;;11.40;47.12;101794.97;12239504;19;20010;-79
2022/05/07 02:40:12;;;;;;;2.80;2.60;;;13.70;43.30;;;11.57;47.11;101820.41;12241037;19;20026;-79
2022/05/07 02:44:14;;;;;;;7.93;2.75;;;13.70;43.50;;;11.75;47.23;101851.06;12239091;19;20357;-78
2022/05/07 02:48:16;;;;;;;3.08;2.78;;;13.90;43.70;;;11.74;47.42;101854.56;12239799;19;20069;-78
2022/05/07 02:52:18;;;;;;;2.33;2.13;;;13.80;43.80;;;11.72;47.52;101845.94;12240463;19;20010;-79
2022/05/07 02:56:21;;;;;;;2.55;2.35;;;13.80;43.70;;;11.71;47.36;101837.22;12235185;19;20372;-78
2022/05/07 03:00:24;;;;;;;3.03;2.45;;;13.90;43.80;;;11.72;47.62;101835.50;12238561;19;20020;-79
2022/05/07 03:04:26;;;;;;;2.38;2.20;;;13.90;43.90;;;11.77;47.66;101835.28;12235130;19;20046;-79
2022/05/07 03:08:28;;;;;;;2.58;2.30;;;13.80;43.90;;;11.69;47.58;101812.03;12235670;19;20019;-78
2022/05/07 03:12:30;;;;;;;3.10;2.80;;;13.90;44.10;;;11.82;47.63;101833.31;12236923;19;20010;-78
2022/05/07 03:16:34;;;;;;;3.58;2.97;;;13.80;44.20;;;11.71;47.74;101808.44;12235283;19;20098;-78
2022/05/07 03:20:37;;;;;;;3.45;2.83;;;13.90;44.30;;;11.83;47.85;101822.78;12237635;19;20048;-78
2022/05/07 03:24:40;;;;;;;2.17;2.08;;;14.00;44.50;;;11.97;48.12;101831.84;12232928;19;20412;-78
2022/05/07 03:28:43;;;;;;;3.15;2.65;;;14.00;44.60;;;11.88;47.79;101820.00;12245746;19;20014;-78
2022/05/07 03:32:47;;;;;;;2.65;2.45;;;14.00;44.40;;;12.08;47.98;101850.56;12246912;19;20455;-78
2022/05/07 03:36:50;;;;;;;5.03;3.25;;;14.10;44.80;;;11.87;48.17;101821.75;12242178;19;20015;-79
2022/05/07 03:40:53;;;;;;;3.03;2.72;;;14.10;44.90;;;12.12;48.31;101857.34;12247596;19;20007;-78
2022/05/07 03:45:00;;;;;;;2.80;2.60;;;14.10;44.90;;;12.17;48.29;101852.75;12244613;19;20011;-78
2022/05/07 03:49:03;;;;;;;3.28;2.80;;;14.20;45.10;;;12.16;48.27;101840.59;12247920;19;20039;-78
2022/05/07 03:57:28;;;;;;;2.42;2.22;;;14.30;45.20;;;12.36;48.46;101856.25;12243838;19;20021;-78
2022/05/07 04:01:30;;;;;;;3.53;3.00;;;14.30;45.30;;;12.41;48.48;101858.69;12246042;19;20026;-79
2022/05/07 04:05:32;;;;;;;2.85;2.65;;;14.40;45.30;;;12.26;48.51;101828.81;12246948;19;20047;-79
2022/05/07 04:09:43;;;;;;;4.25;3.20;;;14.50;45.40;;;12.38;48.69;101843.97;12245861;19;20015;-79
2022/05/07 04:13:45;;;;;;;2.90;2.70;;;14.50;45.30;;;12.27;48.70;101822.63;12245253;19;20007;-79
2022/05/07 04:17:47;;;;;;;2.95;2.75;;;14.40;45.30;;;12.41;48.89;101837.72;12242953;19;20022;-79
2022/05/07 04:21:49;;;;;;;2.75;2.35;;;14.50;45.30;;;12.50;49.00;101860.03;12245558;19;20007;-79
2022/05/07 04:25:56;;;;;;;2.53;2.33;;;14.70;45.40;;;12.54;48.90;101859.00;12244975;19;20019;-79
2022/05/07 04:30:00;;;;;;;2.67;2.47;;;14.70;45.50;;;12.30;49.03;101814.63;12247204;19;20006;-79
2022/05/07 04:34:03;;;;;;;3.72;2.40;;;14.60;45.50;;;12.63;49.08;101858.56;12243335;19;20593;-79
2022/05/07 04:38:07;;;;;;;3.38;2.30;;;14.70;45.50;;;12.67;49.07;101854.06;12240114;19;20017;-79
2022/05/07 04:42:12;;;;;;;3.03;2.72;;;14.60;45.60;;;12.72;49.10;101868.66;12244733;19;20023;-79
2022/05/07 04:46:25;;;;;;;2.30;2.17;;;14.80;45.60;;;12.76;49.07;101864.94;12244614;19;20045;-79
2022/05/07 04:50:37;;;;;;;2.78;2.55;;;14.80;45.70;;;12.62;49.05;101831.53;12244118;19;20111;-79
2022/05/07 04:55:01;;;;;;;2.33;2.22;;;14.90;45.70;;;12.84;49.25;101857.59;12243092;19;20056;-81
2022/05/07 04:59:03;;;;;;;4.18;2.80;;;14.90;45.90;;;12.89;49.15;101846.88;12240424;19;20010;-83
2022/05/07 05:03:13;;;;;;;2.72;2.47;;;15.00;45.80;;;12.87;49.30;101824.28;12243037;19;20010;-81
2022/05/07 05:07:17;;;;;;;3.17;2.28;;;15.00;46.00;;;13.01;49.21;101838.44;12241023;19;20018;-81
2022/05/07 05:11:22;;;;;;;2.53;2.10;;;15.10;46.00;;;13.16;49.48;101847.34;12242809;19;20014;-80
2022/05/07 05:15:24;;;;;;;2.28;2.08;;;15.00;46.10;;;12.86;49.46;101796.38;12240992;19;20048;-80
2022/05/07 05:19:30;;;;;;;3.20;2.90;;;15.30;46.30;;;13.13;49.62;101830.94;12243380;19;20085;-80
2022/05/07 05:23:36;;;;;;;2.85;2.50;;;15.20;46.20;;;13.24;49.59;101837.34;12239839;19;20027;-81
2022/05/07 05:27:39;;;;;;;3.00;2.63;;;15.40;46.30;;;13.40;49.72;101852.38;12242402;19;20115;-80
2022/05/07 05:31:42;;;;;;;3.03;2.60;;;15.50;46.30;;;13.35;49.68;101831.59;12241464;19;20010;-80
2022/05/07 05:35:52;;;;;;;3.05;2.78;;;15.60;46.30;;;13.50;49.76;101843.09;12241725;19;20010;-80
2022/05/07 05:39:59;;;;;;;2.85;2.63;;;15.70;46.30;;;13.69;49.71;101859.66;12242406;19;20042;-80
2022/05/07 05:44:03;;;;;;;2.75;2.40;;;15.70;46.40;;;13.68;49.73;101829.06;12240423;19;20010;-84
2022/05/07 05:48:07;;;;;;;2.83;2.63;;;15.80;46.50;;;14.03;49.82;101850.06;12238258;19;20035;-81
2022/05/07 05:52:09;;;;;;;2.95;2.22;;;15.90;46.90;;;14.25;49.90;101849.78;12240065;19;20378;-79
2022/05/07 05:56:12;;;;;;;2.40;2.20;;;16.10;47.00;;;14.34;49.80;101827.44;12240782;19;20475;-81
2022/05/07 06:00:19;;;;;;;2.67;2.30;;;16.30;47.20;;;14.36;49.80;101800.13;12241125;19;20045;-80
2022/05/07 06:04:24;;;;;;;10.55;2.67;;;16.50;47.00;;;14.88;49.81;101843.81;12237591;19;20014;-81
2022/05/07 06:08:30;;;;;;;2.85;2.25;;;16.60;47.10;;;15.01;49.66;101826.41;12240912;19;20027;-81
2022/05/07 06:12:33;;;;;;;4.20;2.47;;;16.90;46.90;;;15.30;49.57;101838.84;12239040;19;20081;-81
2022/05/07 06:16:35;;;;;;;2.50;2.00;;;17.10;46.10;;;15.54;49.31;101849.75;12238916;19;20010;-81
2022/05/07 06:20:44;;;;;;;3.72;2.33;;;17.40;46.10;;;15.70;49.14;101837.41;12239504;19;20046;-82
2022/05/07 06:29:09;;;;;;;2.22;2.13;;;17.80;45.10;;;16.28;49.10;101862.91;12239743;19;20018;-81
2022/05/07 06:33:15;;;;;;;3.17;2.28;;;18.00;45.20;;;16.56;48.79;101864.69;12238871;19;20031;-81
2022/05/07 06:37:26;;;;;;;2.33;1.73;;;18.30;45.00;;;16.83;48.50;101871.00;12236125;19;20051;-81
2022/05/07 06:41:30;;;;;;;2.85;1.88;;;18.40;44.40;;;17.00;48.24;101857.56;12238523;19;20413;-81
2022/05/07 06:45:40;;;;;;;4.75;1.90;;;18.70;44.30;;;17.25;47.97;101865.59;12238868;19;20010;-82
2022/05/07 06:49:44;;;;;;;2.17;1.97;;;18.90;43.90;;;17.38;48.07;101851.59;12238864;19;20401;-80
2022/05/07 06:53:46;;;;;;;2.05;1.85;;;19.20;43.90;;;17.62;48.02;101876.38;12239191;19;20013;-80
2022/05/07 06:57:48;;;;;;;1.65;1.55;;;19.20;43.50;;;17.55;47.71;101838.13;12236653;19;20018;-80
2022/05/07 07:01:49;;;;;;;2.08;1.95;;;19.60;43.40;;;17.92;47.51;101872.66;12243328;19;20011;-80
2022/05/07 07:05:52;;;;;;;2.58;2.20;;;19.70;43.10;;;18.02;47.71;101871.06;12251323;19;20517;-79
2022/05/07 07:09:54;;;;;;;2.03;1.85;;;19.80;43.00;;;18.05;47.26;101854.16;12253370;19;20014;-80
2022/05/07 07:13:56;;;;;;;5.65;1.73;;;19.80;42.60;;;18.31;47.15;101866.44;12227139;19;20032;-79
2022/05/07 07:17:58;;;;;;;1.85;1.58;;;20.10;42.60;;;18.29;46.90;101848.97;12245510;19;20007;-80
2022/05/07 07:21:59;;;;;;;1.80;1.70;;;20.20;42.40;;;18.47;47.08;101870.63;12246008;19;20337;-79
2022/05/07 07:26:01;;;;;;;2.58;1.80;;;20.30;42.50;;;18.41;46.88;101860.47;12248568;19;20022;-79
2022/05/07 07:30:03;;;;;;;2.80;2.22;;;20.40;42.30;;;18.55;47.02;101858.56;12250288;19;20418;-79
2022/05/07 07:34:05;;;;;;;3.95;2.25;;;20.50;41.90;;;18.61;46.51;101843.22;12244794;19;20027;-79
2022/05/07 07:38:07;;;;;;;3.00;2.25;;;20.60;41.80;;;18.93;46.75;101865.59;12247115;19;20015;-79
2022/05/07 07:42:08;;;;;;;2.13;1.92;;;20.70;41.90;;;19.13;46.57;101873.88;12249635;19;20010;-80
2022/05/07 07:50:35;;;;;;;2.53;1.90;;;21.00;42.00;;;19.72;46.35;101873.09;12248911;19;20014;-80
2022/05/07 07:54:37;;;;;;;3.53;2.40;;;21.30;42.30;;;19.93;46.05;101866.16;12243988;19;20356;-78
2022/05/07 07:58:38;;;;;;;2.33;2.13;;;21.50;41.50;;;20.17;46.04;101867.84;12244207;19;20352;-81
2022/05/07 08:02:55;;;;;;;2.33;1.85;;;21.70;41.50;;;20.32;45.56;101864.03;12243901;19;20026;-80
2022/05/07 08:15:38;;;;;;;1.70;1.60;;;22.30;40.80;;;20.85;45.39;101858.94;12243752;19;20495;-78
2022/05/07 08:19:43;;;;;;;2.15;1.52;;;22.50;40.90;;;21.10;44.81;101864.91;12246072;19;20028;-80
2022/05/07 08:23:45;;;;;;;1.65;1.55;;;22.60;40.70;;;21.20;44.73;101856.06;12242776;19;20027;-79
2022/05/07 08:27:48;;;;;;;1.60;1.42;;;22.90;40.40;;;21.41;44.78;101864.13;12245382;19;20018;-80
2022/05/07 08:31:50;;;;;;;1.60;1.50;;;23.00;40.20;;;21.56;44.27;101862.00;12243003;19;20112;-78
2022/05/07 08:35:52;;;;;;;1.63;1.30;;;23.20;39.80;;;21.60;44.35;101850.13;12243197;19;20035;-81
2022/05/07 08:40:01;;;;;;;1.40;1.30;;;23.50;39.40;;;21.53;43.93;101816.22;12245340;19;20084;-83
2022/05/07 08:44:04;;;;;;;2.80;1.60;;;23.40;39.20;;;21.92;43.49;101848.38;12238829;19;20006;-83
2022/05/07 08:48:06;;;;;;;1.95;1.75;;;23.70;39.00;;;21.85;43.60;101805.50;12231147;19;20010;-79
2022/05/07 08:52:08;;;;;;;2.97;1.98;;;23.80;38.80;;;22.43;43.42;101864.31;12244369;19;20377;-82
2022/05/07 08:56:11;;;;;;;3.10;1.90;;;24.00;38.50;;;22.58;43.31;101851.50;12242177;19;20555;-84
2022/05/07 09:00:16;;;;;;;2.10;1.90;;;24.20;38.70;;;22.73;42.90;101849.28;12243480;19;20014;-85
2022/05/07 09:04:18;;;;;;;3.05;1.90;;;24.40;38.30;;;23.06;42.70;101852.59;12237762;19;20014;-83
2022/05/07 09:08:26;;;;;;;1.80;1.70;;;24.60;38.60;;;23.25;42.59;101855.28;12242081;19;20010;-83
2022/05/07 09:12:29;;;;;;;2.30;2.05;;;24.80;37.90;;;23.36;42.27;101839.16;12241281;19;20051;-83
2022/05/07 09:16:41;;;;;;;2.90;2.53;;;25.00;37.90;;;23.53;41.84;101850.94;12241984;19;20118;-82
2022/05/07 09:20:43;;;;;;;2.92;2.65;;;25.10;37.30;;;23.67;41.52;101854.97;12242937;19;20022;-83
2022/05/07 09:24:54;;;;;;;2.85;2.17;;;25.20;37.10;;;23.62;41.51;101825.22;12238878;19;20333;-84
2022/05/07 09:28:56;;;;;;;3.65;2.13;;;25.40;36.80;;;23.85;41.33;101842.63;12238006;19;20014;-85
2022/05/07 09:32:58;;;;;;;3.08;1.88;;;25.40;37.00;;;23.99;41.47;101837.81;12241751;19;20021;-84
2022/05/07 09:37:01;;;;;;;2.65;1.88;;;25.70;36.90;;;24.07;41.12;101829.91;12239971;19;20018;-83
2022/05/07 09:41:03;;;;;;;1.90;1.70;;;25.70;37.10;;;24.22;40.90;101831.13;12243086;19;20042;-85
2022/05/07 09:45:06;;;;;;;2.25;2.05;;;25.90;36.70;;;24.34;40.70;101814.91;12239365;19;20022;-84
2022/05/07 09:49:09;;;;;;;3.83;2.13;;;26.10;36.30;;;24.40;40.22;101809.81;12242441;19;20078;-83
2022/05/07 09:57:34;;;;;;;2.25;2.05;;;26.10;36.10;;;24.73;40.03;101826.22;12239550;19;20010;-83
2022/05/07 10:02:04;;;;;;;3.78;1.85;;;26.40;36.10;;;24.87;39.45;101811.50;12240441;19;20055;-84
2022/05/07 10:06:23;;;;;;;1.77;1.58;;;26.50;36.00;;;25.00;39.27;101795.94;12241755;19;20023;-85
2022/05/07 10:10:33;;;;;;;3.70;2.00;;;26.60;35.80;;;25.21;39.60;101792.16;12239663;19;20021;-84
2022/05/07 10:14:35;;;;;;;3.03;1.75;;;26.80;35.80;;;25.40;39.38;101808.00;12237791;19;20484;-85
2022/05/07 10:18:41;;;;;;;2.42;1.70;;;26.90;35.60;;;25.32;39.04;101789.22;12236006;19;20010;-84
2022/05/07 10:22:43;;;;;;;2.25;1.50;;;27.10;35.40;;;25.39;38.62;101806.34;12239578;19;20018;-85
2022/05/07 10:26:45;;;;;;;1.92;1.50;;;27.10;34.90;;;25.30;38.96;101788.53;12239323;19;20022;-84
2022/05/07 10:30:52;;;;;;;1.73;1.63;;;27.10;34.90;;;25.36;38.47;101803.97;12239785;19;20010;-85
2022/05/07 10:34:54;;;;;;;3.35;1.55;;;27.10;34.70;;;25.20;38.55;101795.81;12236511;19;20090;-83
2022/05/07 10:39:07;;;;;;;1.45;1.30;;;27.00;34.70;;;25.12;38.28;101789.38;12242191;19;20641;-83
2022/05/07 10:43:08;;;;;;;5.32;1.50;;;27.00;34.70;;;24.93;38.64;101786.88;12234856;19;20019;-85
2022/05/07 10:47:18;;;;;;;1.67;1.58;;;26.90;34.50;;;24.88;38.16;101775.78;12248722;19;20015;-86
2022/05/07 10:51:28;;;;;;;1.50;1.40;;;26.90;34.50;;;25.01;38.43;101784.28;12250059;19;20103;-86
2022/05/07 10:55:30;;;;;;;2.05;1.80;;;27.10;34.80;;;25.04;38.17;101777.78;12246799;19;20030;-85
2022/05/07 10:59:33;;;;;;;3.05;1.58;;;26.80;34.60;;;25.26;37.98;101793.38;12247648;19;20035;-84
2022/05/07 11:03:34;;;;;;;2.53;1.98;;;26.70;34.60;;;25.06;37.93;101731.19;12248947;19;20351;-85
2022/05/07 11:07:36;;;;;;;4.07;1.77;;;26.80;34.40;;;25.53;37.91;101778.19;12249338;19;20350;-84
2022/05/07 11:11:44;;;;;;;2.78;1.42;;;27.00;34.40;;;25.61;37.10;101763.00;12248748;19;20031;-85
2022/05/07 11:15:50;;;;;;;3.70;1.90;;;27.20;34.20;;;25.72;37.42;101783.31;12248926;19;20032;-85
2022/05/07 11:19:51;;;;;;;1.48;1.35;;;27.50;34.20;;;25.65;37.16;101784.94;12250302;19;20011;-85
2022/05/07 11:23:59;;;;;;;1.30;1.20;;;27.30;33.70;;;25.38;36.64;101719.06;12233988;19;20014;-85
2022/05/07 11:28:01;;;;;;;1.38;1.23;;;27.20;33.40;;;25.71;36.96;101778.13;12243655;19;20474;-85
2022/05/07 11:32:07;;;;;;;1.73;1.30;;;27.30;33.60;;;25.70;36.58;101781.78;12248676;19;20033;-84
2022/05/07 11:36:08;;;;;;;1.45;1.35;;;27.40;33.30;;;25.45;36.40;101748.72;12236160;19;20522;-85
2022/05/07 11:40:13;;;;;;;1.40;1.30;;;27.40;33.40;;;25.50;36.40;101774.00;12247173;19;20038;-84
2022/05/07 11:48:45;;;;;;;4.40;1.50;;;27.20;33.60;;;25.37;36.65;101776.22;12246235;19;20353;-85
2022/05/07 11:52:47;;;;;;;2.55;1.67;;;27.50;34.00;;;25.29;36.51;101762.81;12248155;19;20031;-90
2022/05/07 11:56:49;;;;;;;1.58;1.48;;;27.10;33.70;;;25.06;36.30;101717.81;12244728;19;20117;-85
2022/05/07 12:00:54;;;;;;;5.45;1.80;;;27.10;33.70;;;25.04;36.56;101709.13;12229841;19;20503;-86
2022/05/07 12:04:57;;;;;;;1.40;1.30;;;27.10;33.40;;;25.27;36.06;101749.56;12244657;19;20456;-88
2022/05/07 12:09:15;;;;;;;2.10;1.73;;;26.90;33.30;;;25.35;36.10;101759.50;12247601;19;20022;-85
2022/05/07 12:13:18;;;;;;;2.20;1.75;;;27.00;33.50;;;25.06;36.01;101707.13;12244292;19;20034;-87
2022/05/07 12:30:40;;;;;;;1.70;1.60;;;26.90;33.60;;;25.16;35.82;101747.16;12239488;19;20044;-81
2022/05/07 12:34:41;;;;;;;2.08;1.88;;;26.90;33.70;;;25.09;35.96;101746.91;12237928;19;20026;-81
2022/05/07 12:38:43;;;;;;;2.42;1.52;;;26.80;33.60;;;24.98;36.37;101739.16;12241447;19;20019;-81
2022/05/07 12:42:48;;;;;;;2.10;1.90;;;26.70;33.70;;;25.06;36.59;101757.94;12241669;19;20018;-82
2022/05/07 12:46:50;;;;;;;2.80;1.80;;;26.80;33.90;;;24.85;36.53;101733.34;12245687;19;20357;-81
2022/05/07 12:50:51;;;;;;;2.60;2.13;;;26.80;33.90;;;24.80;36.42;101735.66;12244726;19;20019;-81
2022/05/07 12:54:53;;;;;;;2.22;2.03;;;26.60;33.80;;;24.85;36.25;101738.69;12240673;19;20014;-82
2022/05/07 12:58:55;;;;;;;2.03;1.55;;;26.70;33.90;;;24.95;36.03;101728.75;12238753;19;20029;-82
2022/05/07 13:03:00;;;;;;;1.80;1.67;;;26.60;33.90;;;25.11;36.08;101734.25;12240672;19;20035;-82
2022/05/07 13:07:02;;;;;;;2.58;1.52;;;26.80;33.90;;;25.16;36.22;101720.41;12244067;19;20472;-82
2022/05/07 13:11:04;;;;;;;2.08;1.85;;;26.80;33.80;;;24.93;35.90;101688.81;12241245;19;20018;-81
2022/05/07 13:15:06;;;;;;;2.40;2.20;;;26.80;33.70;;;24.86;35.69;101684.25;12239213;19;20015;-81
2022/05/07 13:19:07;;;;;;;1.88;1.77;;;26.80;33.60;;;24.75;35.69;101685.34;12237733;19;20022;-81
2022/05/07 13:23:12;;;;;;;2.95;2.00;;;26.60;33.40;;;24.92;36.17;101721.03;12242363;19;20094;-83
2022/05/07 13:27:14;;;;;;;2.23;1.87;;;26.60;33.80;;;24.88;35.83;101717.00;12233710;19;20014;-81
2022/05/07 13:31:16;;;;;;;2.15;1.80;;;26.70;33.70;;;24.83;36.19;101719.31;12239532;19;20021;-82
2022/05/07 13:35:17;;;;;;;1.83;1.73;;;26.50;33.60;;;24.90;35.74;101726.56;12228922;19;20060;-81
2022/05/07 13:39:18;;;;;;;2.38;2.20;;;26.50;33.60;;;24.81;36.08;101697.22;12232938;19;20026;-82
2022/05/07 13:43:20;;;;;;;2.15;1.80;;;26.40;33.40;;;24.91;36.05;101708.69;12237436;19;20010;-82
2022/05/07 13:47:22;;;;;;;1.35;1.20;;;26.40;33.40;;;24.89;35.91;101700.81;12237382;19;20041;-81
2022/05/07 13:51:25;;;;;;;4.47;1.60;;;26.60;33.50;;;25.04;35.36;101709.13;12241932;19;20023;-81
2022/05/07 13:55:26;;;;;;;2.13;1.50;;;26.60;33.20;;;24.99;35.52;101686.53;12237349;19;20423;-81
2022/05/07 13:59:28;;;;;;;1.67;1.58;;;26.70;33.30;;;24.92;35.50;101678.28;12238445;19;20092;-81
2022/05/07 14:03:30;;;;;;;2.78;1.20;;;26.70;33.30;;;25.07;35.66;101706.13;12237882;19;20460;-81
2022/05/07 14:07:35;;;;;;;2.20;2.00;;;26.60;33.20;;;25.00;35.15;101683.69;12238218;19;20010;-83
2022/05/07 14:11:41;;;;;;;2.15;1.73;;;26.70;33.40;;;25.09;35.32;101697.97;12236668;19;20038;-81
2022/05/07 14:15:42;;;;;;;1.65;1.50;;;26.60;33.50;;;25.09;35.70;101706.81;12238056;19;20017;-82
2022/05/07 14:19:44;;;;;;;1.38;1.27;;;26.80;33.40;;;25.11;35.53;101699.50;12236623;19;20042;-82
2022/05/07 14:23:46;;;;;;;2.75;1.75;;;26.60;33.60;;;25.17;35.63;101696.22;12237540;19;20017;-82
2022/05/07 14:27:47;;;;;;;1.70;1.60;;;26.80;33.40;;;25.24;35.51;101692.91;12237945;19;20006;-82
2022/05/07 14:31:50;;;;;;;1.80;1.48;;;26.80;33.40;;;24.93;35.48;101645.22;12238909;19;20043;-81
2022/05/07 14:35:52;;;;;;;1.70;1.60;;;26.70;33.40;;;25.16;35.59;101686.50;12237581;19;20006;-82
2022/05/07 14:39:54;;;;;;;1.88;1.73;;;26.70;33.40;;;25.08;35.43;101675.72;12236488;19;20467;-82
2022/05/07 14:43:56;;;;;;;2.38;1.77;;;26.80;33.50;;;25.11;35.69;101679.91;12233604;19;20053;-82
2022/05/07 14:47:59;;;;;;;2.42;1.75;;;26.80;33.70;;;25.14;35.39;101679.59;12237781;19;20014;-82
2022/05/07 14:52:01;;;;;;;2.03;1.60;;;26.80;33.90;;;25.25;35.82;101679.41;12236046;19;20074;-82
2022/05/07 14:56:03;;;;;;;2.20;2.00;;;26.90;33.90;;;25.24;35.28;101685.72;12229658;19;20015;-82
2022/05/07 15:00:07;;;;;;;1.70;1.58;;;26.90;33.70;;;24.92;35.31;101647.06;12234160;19;20545;-81
2022/05/07 15:04:09;;;;;;;1.67;1.58;;;26.90;33.80;;;24.97;35.37;101649.25;12237579;19;20081;-82
2022/05/07 15:12:31;;;;;;;1.83;1.73;;;26.80;33.70;;;25.01;35.88;101671.19;12235151;19;20019;-82
2022/05/07 15:16:33;;;;;;;3.08;1.77;;;26.80;33.90;;;25.01;35.58;101684.53;12231729;19;20007;-82
2022/05/07 15:20:34;;;;;;;1.92;1.73;;;26.70;33.80;;;24.88;35.47;101668.91;12236106;19;20035;-82
2022/05/07 15:24:37;;;;;;;2.20;1.75;;;26.70;33.90;;;24.91;35.43;101693.47;12238934;19;20007;-82
2022/05/07 15:28:38;;;;;;;1.75;1.65;;;26.60;33.80;;;24.82;35.42;101680.22;12245901;19;20581;-82
2022/05/07 15:37:03;;;;;;;2.13;1.77;;;26.50;34.10;;;24.90;35.96;101693.66;12245303;19;20014;-82
2022/05/07 15:41:05;;;;;;;2.08;1.67;;;26.40;34.00;;;24.89;36.03;101694.63;12247659;19;20421;-82
2022/05/07 15:45:07;;;;;;;2.50;2.30;;;26.60;34.10;;;24.85;35.97;101687.94;12245014;19;20503;-82
2022/05/07 15:49:10;;;;;;;2.17;1.70;;;26.60;34.00;;;24.88;36.00;101685.78;12247903;19;20012;-82
2022/05/07 15:53:12;;;;;;;3.28;1.85;;;26.40;34.10;;;24.95;35.55;101700.22;12246462;19;20014;-82
2022/05/07 15:57:14;;;;;;;1.92;1.73;;;26.40;34.20;;;24.59;36.31;101640.63;12246290;19;20011;-82
2022/05/07 16:01:16;;;;;;;3.53;2.05;;;26.60;34.50;;;24.91;36.14;101688.13;12246390;19;20022;-82
2022/05/07 16:05:18;;;;;;;1.92;1.65;;;26.60;34.30;;;24.82;35.67;101677.56;12245665;19;20471;-82
2022/05/07 16:09:20;;;;;;;2.22;1.90;;;26.50;34.30;;;24.60;35.85;101650.31;12244736;19;20030;-82
2022/05/07 16:13:22;;;;;;;1.73;1.38;;;26.50;34.10;;;24.81;36.04;101678.53;12243364;19;20057;-82
2022/05/07 16:17:23;;;;;;;1.63;1.52;;;26.50;34.10;;;24.84;35.62;101683.56;12241871;19;20420;-82
2022/05/07 16:21:25;;;;;;;2.78;1.73;;;26.40;34.00;;;24.79;36.03;101685.84;12245506;19;20035;-82
2022/05/07 16:25:27;;;;;;;3.72;1.35;;;26.40;34.20;;;24.57;36.00;101644.44;12244291;19;20074;-82
2022/05/07 16:29:30;;;;;;;2.38;1.50;;;26.40;33.90;;;24.73;35.76;101677.50;12244743;19;20022;-81
2022/05/07 16:33:32;;;;;;;3.60;1.98;;;26.50;34.40;;;24.80;35.54;101687.53;12239335;19;20029;-81
2022/05/07 16:37:34;;;;;;;1.80;1.30;;;26.50;34.00;;;24.37;35.35;101633.88;12242416;19;20018;-80
2022/05/07 16:41:35;;;;;;;1.20;1.13;;;26.40;33.70;;;24.67;35.67;101694.09;12244002;19;20041;-81
2022/05/07 16:45:37;;;;;;;5.60;1.30;;;26.40;33.80;;;24.66;35.88;101697.78;12245631;19;20017;-80
2022/05/07 16:49:39;;;;;;;1.25;1.15;;;26.20;33.70;;;24.62;35.64;101698.22;12245029;19;20014;-81
2022/05/07 16:53:40;;;;;;;1.35;1.27;;;26.20;33.70;;;24.50;35.59;101684.28;12223520;19;20475;-80
2022/05/07 16:57:42;;;;;;;1.15;0.93;;;26.10;33.70;;;24.35;35.33;101675.91;12243462;19;20010;-80
2022/05/07 17:01:44;;;;;;;1.30;1.17;;;26.20;33.50;;;24.43;35.52;101704.53;12243337;19;20011;-81
2022/05/07 17:05:45;;;;;;;18.05;14.95;;;26.20;33.50;;;24.10;35.24;101655.31;12242291;19;20006;-81
2022/05/07 17:09:47;;;;;;;8.70;7.80;;;25.90;33.40;;;24.26;35.29;101693.69;12244364;19;20039;-81
2022/05/07 17:13:52;;;;;;;2.83;2.63;;;26.00;33.30;;;24.11;35.40;101687.16;12241212;19;20085;-80
2022/05/07 17:17:57;;;;;;;1.58;1.48;;;25.80;33.40;;;24.17;35.40;101707.94;12239578;19;20089;-81
2022/05/07 17:21:59;;;;;;;1.45;1.35;;;25.80;33.30;;;23.85;35.57;101666.53;12242926;19;20650;-81
2022/05/07 17:26:04;;;;;;;1.20;1.10;;;25.90;33.50;;;23.68;35.75;101650.44;12241543;19;20039;-81
2022/05/07 17:30:06;;;;;;;3.25;1.40;;;26.00;33.60;;;24.07;35.53;101712.50;12242801;19;20011;-81
2022/05/07 17:34:08;;;;;;;1.42;1.23;;;25.80;33.70;;;23.64;35.46;101647.25;12242513;19;20022;-81
2022/05/07 17:38:10;;;;;;;1.65;1.20;;;25.60;33.80;;;23.93;35.87;101713.81;12240531;19;20022;-81
2022/05/07 17:42:12;;;;;;;2.13;1.40;;;25.70;34.00;;;23.98;35.51;101732.91;12243013;19;20010;-81